createdAt,value
2023-01-17T00:01:13.599Z,100.00
2023-01-17T00:03:58.696Z,100.00
2023-01-17T00:06:44.442Z,100.00
2023-01-17T00:09:30.058Z,100.00
2023-01-17T00:11:56.953Z,100.00
2023-01-17T00:14:23.582Z,100.00
2023-01-17T00:16:50.199Z,100.00
2023-01-17T00:19:35.462Z,100.00
2023-01-17T00:22:20.399Z,100.00
2023-01-17T00:25:05.791Z,100.00
2023-01-17T00:27:32.352Z,100.00
2023-01-17T00:29:58.959Z,100.00
2023-01-17T00:32:25.480Z,100.00
2023-01-17T00:34:51.998Z,100.00
2023-01-17T00:37:18.567Z,100.00
2023-01-17T00:39:45.083Z,100.00
2023-01-17T00:42:11.647Z,100.00
2023-01-17T00:44:56.701Z,100.00
2023-01-17T00:47:42.105Z,100.00
2023-01-17T00:50:27.593Z,100.00
2023-01-17T00:53:12.642Z,100.00
2023-01-17T00:55:57.645Z,100.00
2023-01-17T00:58:42.939Z,100.00
2023-01-17T01:01:28.290Z,100.00
2023-01-17T01:04:13.324Z,100.00
2023-01-17T01:06:58.785Z,100.00
2023-01-17T01:09:43.796Z,100.00
2023-01-17T01:12:29.180Z,100.00
2023-01-17T01:15:14.033Z,100.00
2023-01-17T01:17:59.548Z,100.00
2023-01-17T01:20:44.836Z,100.00
2023-01-17T01:23:30.076Z,100.00
2023-01-17T01:26:15.130Z,100.00
2023-01-17T01:29:00.358Z,100.00
2023-01-17T01:31:45.429Z,100.00
2023-01-17T01:34:12.184Z,100.00
2023-01-17T01:36:38.830Z,100.00
2023-01-17T01:39:05.422Z,100.00
2023-01-17T01:41:32.135Z,100.00
2023-01-17T01:43:58.801Z,100.00
2023-01-17T01:46:31.524Z,100.00
2023-01-17T01:49:04.140Z,100.00
2023-01-17T01:51:40.090Z,100.00
2023-01-17T01:54:12.358Z,100.00
2023-01-17T01:56:39.633Z,100.00
2023-01-17T01:59:08.612Z,100.00
2023-01-17T02:01:35.635Z,100.00
2023-01-17T02:04:02.917Z,100.00
2023-01-17T02:06:37.476Z,100.00
2023-01-17T02:09:06.366Z,100.00
2023-01-17T02:11:33.752Z,100.00
2023-01-17T02:14:00.425Z,100.00
2023-01-17T02:16:33.747Z,100.00
2023-01-17T02:19:00.379Z,100.00
2023-01-17T02:21:26.942Z,100.00
2023-01-17T02:24:12.472Z,100.00
2023-01-17T02:26:58.044Z,100.00
2023-01-17T02:29:33.702Z,100.00
2023-01-17T02:32:06.474Z,100.00
2023-01-17T02:34:51.779Z,100.00
2023-01-17T02:37:30.657Z,100.00
2023-01-17T02:39:57.612Z,100.00
2023-01-17T02:42:29.266Z,100.00
2023-01-17T02:44:55.848Z,100.00
2023-01-17T02:47:22.539Z,100.00
2023-01-17T02:49:49.306Z,100.00
2023-01-17T02:52:30.547Z,100.00
2023-01-17T02:55:01.395Z,100.00
2023-01-17T02:57:34.021Z,100.00
2023-01-17T03:00:06.810Z,100.00
2023-01-17T03:02:44.204Z,100.00
2023-01-17T03:05:20.225Z,100.00
2023-01-17T03:07:48.494Z,100.00
2023-01-17T03:10:16.452Z,100.00
2023-01-17T03:12:43.295Z,100.00
2023-01-17T03:15:13.908Z,100.00
2023-01-17T03:17:45.258Z,100.00
2023-01-17T03:20:13.069Z,100.00
2023-01-17T03:22:39.951Z,100.00
2023-01-17T03:25:06.823Z,100.00
2023-01-17T03:27:33.802Z,100.00
2023-01-17T03:30:00.518Z,100.00
2023-01-17T03:32:27.121Z,100.00
2023-01-17T03:34:53.810Z,100.00
2023-01-17T03:37:20.416Z,100.00
2023-01-17T03:39:47.066Z,100.00
2023-01-17T03:42:13.657Z,100.00
2023-01-17T03:44:40.662Z,100.00
2023-01-17T03:47:07.364Z,100.00
2023-01-17T03:49:34.004Z,100.00
2023-01-17T03:52:00.607Z,100.00
2023-01-17T03:54:27.209Z,100.00
2023-01-17T03:56:53.841Z,100.00
2023-01-17T03:59:20.465Z,100.00
2023-01-17T04:01:47.175Z,100.00
2023-01-17T04:04:15.056Z,100.00
2023-01-17T04:06:42.093Z,100.00
2023-01-17T04:09:08.725Z,100.00
2023-01-17T04:11:35.351Z,100.00
2023-01-17T04:14:02.008Z,100.00
2023-01-17T04:16:30.107Z,100.00
2023-01-17T04:18:57.087Z,100.00
2023-01-17T04:21:24.045Z,100.00
2023-01-17T04:23:50.892Z,100.00
2023-01-17T04:26:17.499Z,100.00
2023-01-17T04:28:44.135Z,100.00
2023-01-17T04:31:17.520Z,100.00
2023-01-17T04:33:44.371Z,100.00
2023-01-17T04:36:10.996Z,100.00
2023-01-17T04:38:37.622Z,100.00
2023-01-17T04:41:04.350Z,100.00
2023-01-17T04:43:31.061Z,100.00
2023-01-17T04:45:58.255Z,100.00
2023-01-17T04:48:25.178Z,100.00
2023-01-17T04:50:51.857Z,100.00
2023-01-17T04:53:18.497Z,100.00
2023-01-17T04:55:46.144Z,100.00
2023-01-17T04:58:12.811Z,100.00
2023-01-17T05:00:39.416Z,100.00
2023-01-17T05:03:06.018Z,100.00
2023-01-17T05:05:32.691Z,100.00
2023-01-17T05:07:59.372Z,100.00
2023-01-17T05:10:26.112Z,100.00
2023-01-17T05:12:56.073Z,100.00
2023-01-17T05:15:22.849Z,100.00
2023-01-17T05:17:50.729Z,100.00
2023-01-17T05:20:17.451Z,100.00
2023-01-17T05:22:44.112Z,100.00
2023-01-17T05:25:10.750Z,100.00
2023-01-17T05:27:37.378Z,100.00
2023-01-17T05:30:04.270Z,100.00
2023-01-17T05:32:31.204Z,100.00
2023-01-17T05:34:57.802Z,100.00
2023-01-17T05:37:24.481Z,100.00
2023-01-17T05:39:51.145Z,100.00
2023-01-17T05:42:17.714Z,100.00
2023-01-17T05:44:44.321Z,100.00
2023-01-17T05:47:10.914Z,100.00
2023-01-17T05:49:39.047Z,100.00
2023-01-17T05:52:05.721Z,100.00
2023-01-17T05:54:32.354Z,100.00
2023-01-17T05:56:58.926Z,100.00
2023-01-17T05:59:36.496Z,100.00
2023-01-17T06:02:04.179Z,100.00
2023-01-17T06:04:30.913Z,100.00
2023-01-17T06:06:57.537Z,100.00
2023-01-17T06:09:24.225Z,100.00
2023-01-17T06:11:50.845Z,100.00
2023-01-17T06:14:17.441Z,100.00
2023-01-17T06:16:44.078Z,100.00
2023-01-17T06:19:10.749Z,100.00
2023-01-17T06:21:37.490Z,100.00
2023-01-17T06:24:04.458Z,100.00
2023-01-17T06:26:31.119Z,100.00
2023-01-17T06:28:57.776Z,100.00
2023-01-17T06:31:24.464Z,100.00
2023-01-17T06:33:51.128Z,100.00
2023-01-17T06:36:17.931Z,100.00
2023-01-17T06:38:44.566Z,100.00
2023-01-17T06:41:11.147Z,100.00
2023-01-17T06:43:37.827Z,100.00
2023-01-17T06:46:04.815Z,100.00
2023-01-17T06:48:31.460Z,100.00
2023-01-17T06:50:58.193Z,100.00
2023-01-17T06:53:24.813Z,100.00
2023-01-17T06:55:52.704Z,100.00
2023-01-17T06:58:19.307Z,100.00
2023-01-17T07:00:46.060Z,100.00
2023-01-17T07:03:23.031Z,100.00
2023-01-17T07:05:50.069Z,100.00
2023-01-17T07:08:17.303Z,100.00
2023-01-17T07:10:47.430Z,100.00
2023-01-17T07:13:14.360Z,100.00
2023-01-17T07:15:41.047Z,100.00
2023-01-17T07:18:08.030Z,100.00
2023-01-17T07:20:34.636Z,100.00
2023-01-17T07:23:01.298Z,100.00
2023-01-17T07:25:27.939Z,100.00
2023-01-17T07:27:57.667Z,100.00
2023-01-17T07:30:24.963Z,100.00
2023-01-17T07:32:53.237Z,100.00
2023-01-17T07:35:19.943Z,100.00
2023-01-17T07:37:50.179Z,100.00
2023-01-17T07:40:17.779Z,100.00
2023-01-17T07:42:44.929Z,100.00
2023-01-17T07:45:12.167Z,100.00
2023-01-17T07:47:38.797Z,100.00
2023-01-17T07:50:06.127Z,100.00
2023-01-17T07:52:32.808Z,100.00
2023-01-17T07:54:59.532Z,100.00
2023-01-17T07:57:26.144Z,100.00
2023-01-17T07:59:52.914Z,100.00
2023-01-17T08:02:22.189Z,100.00
2023-01-17T08:04:49.541Z,100.00
2023-01-17T08:07:16.558Z,100.00
2023-01-17T08:09:43.924Z,100.00
2023-01-17T08:12:10.790Z,100.00
2023-01-17T08:14:37.418Z,100.00
2023-01-17T08:17:08.097Z,100.00
2023-01-17T08:19:34.753Z,100.00
2023-01-17T08:22:01.355Z,100.00
2023-01-17T08:24:27.937Z,100.00
2023-01-17T08:26:57.487Z,100.00
2023-01-17T08:29:24.231Z,100.00
2023-01-17T08:31:50.921Z,100.00
2023-01-17T08:34:17.519Z,100.00
2023-01-17T08:36:44.991Z,100.00
2023-01-17T08:39:13.177Z,100.00
2023-01-17T08:41:39.830Z,100.00
2023-01-17T08:44:06.847Z,100.00
2023-01-17T08:46:33.480Z,100.00
2023-01-17T08:49:00.229Z,100.00
2023-01-17T08:51:27.175Z,100.00
2023-01-17T08:53:54.949Z,100.00
2023-01-17T08:56:21.734Z,100.00
2023-01-17T08:58:48.471Z,100.00
2023-01-17T09:01:15.333Z,100.00
2023-01-17T09:03:42.156Z,100.00
2023-01-17T09:06:10.285Z,86.69
2023-01-17T09:08:37.298Z,98.99
2023-01-17T09:11:08.209Z,100.00
2023-01-17T09:13:35.123Z,94.29
2023-01-17T09:16:02.127Z,88.65
2023-01-17T09:18:29.634Z,92.09
2023-01-17T09:20:59.374Z,87.35
2023-01-17T09:23:27.218Z,87.14
2023-01-17T09:25:54.596Z,90.68
2023-01-17T09:28:21.556Z,98.48
2023-01-17T09:30:48.255Z,100.00
2023-01-17T09:33:15.024Z,100.00
2023-01-17T09:35:41.863Z,100.00
2023-01-17T09:38:08.507Z,100.00
2023-01-17T09:40:37.508Z,100.00
2023-01-17T09:43:11.545Z,100.00
2023-01-17T09:45:39.046Z,100.00
2023-01-17T09:48:09.872Z,100.00
2023-01-17T09:50:39.320Z,100.00
2023-01-17T09:53:07.519Z,100.00
2023-01-17T09:55:37.328Z,100.00
2023-01-17T09:58:24.556Z,100.00
2023-01-17T10:01:07.763Z,100.00
2023-01-17T10:03:44.266Z,100.00
2023-01-17T10:06:14.099Z,100.00
2023-01-17T10:08:40.784Z,100.00
2023-01-17T10:11:13.193Z,100.00
2023-01-17T10:13:47.265Z,100.00
2023-01-17T10:16:13.866Z,100.00
2023-01-17T10:18:56.995Z,100.00
2023-01-17T10:21:34.231Z,100.00
2023-01-17T10:24:16.601Z,100.00
2023-01-17T10:26:48.791Z,100.00
2023-01-17T10:29:20.170Z,100.00
2023-01-17T10:31:57.267Z,100.00
2023-01-17T10:34:29.482Z,100.00
2023-01-17T10:37:06.161Z,100.00
2023-01-17T10:39:32.884Z,100.00
2023-01-17T10:42:07.035Z,100.00
2023-01-17T10:44:52.405Z,100.00
2023-01-17T10:47:20.475Z,100.00
2023-01-17T10:49:53.094Z,100.00
2023-01-17T10:52:38.641Z,100.00
2023-01-17T10:55:05.479Z,100.00
2023-01-17T10:57:42.403Z,100.00
2023-01-17T11:00:21.282Z,100.00
2023-01-17T11:02:50.683Z,100.00
2023-01-17T11:05:25.026Z,100.00
2023-01-17T11:08:02.403Z,100.00
2023-01-17T11:10:42.376Z,100.00
2023-01-17T11:13:26.554Z,100.00
2023-01-17T11:16:02.379Z,100.00
2023-01-17T11:18:33.498Z,100.00
2023-01-17T11:21:13.027Z,100.00
2023-01-17T11:23:44.594Z,100.00
2023-01-17T11:26:13.052Z,100.00
2023-01-17T11:28:40.775Z,100.00
2023-01-17T11:31:22.869Z,100.00
2023-01-17T11:33:59.255Z,100.00
2023-01-17T11:36:27.678Z,100.00
2023-01-17T11:38:57.519Z,100.00
2023-01-17T11:41:25.364Z,100.00
2023-01-17T11:43:56.830Z,100.00
2023-01-17T11:46:29.245Z,100.00
2023-01-17T11:48:57.643Z,100.00
2023-01-17T11:51:32.115Z,100.00
2023-01-17T11:54:10.869Z,100.00
2023-01-17T11:56:38.858Z,100.00
2023-01-17T11:59:24.403Z,100.00
2023-01-17T12:02:15.797Z,100.00
2023-01-17T12:05:02.949Z,100.00
2023-01-17T12:07:49.800Z,100.00
2023-01-17T12:10:32.886Z,100.00
2023-01-17T12:13:32.975Z,100.00
2023-01-17T12:16:31.190Z,100.00
2023-01-17T12:19:00.879Z,100.00
2023-01-17T12:22:00.361Z,100.00
2023-01-17T12:24:42.307Z,100.00
2023-01-17T12:27:14.118Z,100.00
2023-01-17T12:29:49.092Z,100.00
2023-01-17T12:32:21.769Z,100.00
2023-01-17T12:34:59.233Z,100.00
2023-01-17T12:37:40.255Z,100.00
2023-01-17T12:40:20.752Z,100.00
2023-01-17T12:42:51.929Z,100.00
2023-01-17T12:45:21.704Z,100.00
2023-01-17T12:47:52.076Z,100.00
2023-01-17T12:50:26.985Z,100.00
2023-01-17T13:27:12.779Z,100.00
2023-01-17T13:29:39.392Z,100.00
2023-01-17T13:32:19.166Z,100.00
2023-01-17T13:34:57.778Z,100.00
2023-01-17T13:37:42.897Z,100.00
2023-01-17T13:40:29.670Z,100.00
2023-01-17T13:42:58.693Z,100.00
2023-01-17T13:45:31.104Z,100.00
2023-01-17T13:48:13.114Z,100.00
2023-01-17T13:50:45.893Z,100.00
2023-01-17T13:53:27.603Z,100.00
2023-01-17T13:56:06.137Z,100.00
2023-01-17T13:59:08.398Z,100.00
2023-01-17T14:01:38.557Z,100.00
2023-01-17T14:04:07.333Z,100.00
2023-01-17T14:06:33.957Z,100.00
2023-01-17T14:09:02.857Z,100.00
2023-01-17T14:11:32.600Z,100.00
2023-01-17T14:14:19.192Z,100.00
2023-01-17T14:16:46.383Z,100.00
2023-01-17T14:19:26.289Z,100.00
2023-01-17T14:22:12.823Z,100.00
2023-01-17T14:24:57.960Z,100.00
2023-01-17T14:27:25.734Z,100.00
2023-01-17T14:29:56.453Z,100.00
2023-01-17T14:32:25.946Z,100.00
2023-01-17T14:34:53.483Z,100.00
2023-01-17T14:37:23.107Z,100.00
2023-01-17T14:39:50.669Z,100.00
2023-01-17T14:42:19.311Z,100.00
2023-01-17T14:44:50.904Z,100.00
2023-01-17T14:47:18.098Z,100.00
2023-01-17T14:49:45.089Z,100.00
2023-01-17T14:52:16.526Z,100.00
2023-01-17T14:54:52.499Z,100.00
2023-01-17T14:57:25.788Z,100.00
2023-01-17T14:59:52.405Z,100.00
2023-01-17T15:02:19.365Z,100.00
2023-01-17T15:04:53.843Z,100.00
2023-01-17T15:07:20.634Z,100.00
2023-01-17T15:09:47.675Z,100.00
2023-01-17T15:12:14.715Z,100.00
2023-01-17T15:14:43.278Z,100.00
2023-01-17T15:17:20.736Z,100.00
2023-01-17T15:19:55.971Z,100.00
2023-01-17T15:22:23.751Z,100.00
2023-01-17T15:24:50.713Z,100.00
2023-01-17T15:27:17.611Z,100.00
2023-01-17T15:29:45.324Z,100.00
2023-01-17T15:32:19.998Z,100.00
2023-01-17T15:34:48.710Z,100.00
2023-01-17T15:37:24.726Z,100.00
2023-01-17T15:39:51.391Z,100.00
2023-01-17T15:42:21.107Z,100.00
2023-01-17T15:44:51.453Z,100.00
2023-01-17T15:47:35.103Z,100.00
2023-01-17T15:50:02.893Z,100.00
2023-01-17T15:52:29.880Z,100.00
2023-01-17T15:55:00.317Z,100.00
2023-01-17T15:57:27.003Z,100.00
2023-01-17T16:00:21.632Z,100.00
2023-01-17T16:02:55.603Z,100.00
2023-01-17T16:05:22.906Z,100.00
2023-01-17T16:07:50.089Z,100.00
2023-01-17T16:10:20.681Z,100.00
2023-01-17T16:12:48.567Z,100.00
2023-01-17T16:15:18.196Z,100.00
2023-01-17T16:17:46.705Z,100.00
2023-01-17T16:20:16.105Z,100.00
2023-01-17T16:22:44.008Z,100.00
2023-01-17T16:25:35.024Z,100.00
2023-01-17T16:28:02.234Z,100.00
2023-01-17T16:30:29.344Z,100.00
2023-01-17T16:32:57.096Z,100.00
2023-01-17T16:35:25.376Z,100.00
2023-01-17T16:37:53.650Z,100.00
2023-01-17T16:40:21.715Z,100.00
2023-01-17T16:42:48.561Z,100.00
2023-01-17T16:45:15.760Z,100.00
2023-01-17T16:47:43.905Z,100.00
2023-01-17T16:50:11.786Z,100.00
2023-01-17T16:52:38.722Z,100.00
2023-01-17T16:55:06.697Z,100.00
2023-01-17T16:57:33.493Z,100.00
2023-01-17T17:00:00.231Z,100.00
2023-01-17T17:02:27.267Z,100.00
2023-01-17T17:04:53.878Z,100.00
2023-01-17T17:07:20.509Z,100.00
2023-01-17T17:09:48.470Z,100.00
2023-01-17T17:12:15.076Z,100.00
2023-01-17T17:14:41.759Z,100.00
2023-01-17T17:17:08.473Z,100.00
2023-01-17T17:19:35.247Z,100.00
2023-01-17T17:22:02.391Z,100.00
2023-01-17T17:24:29.151Z,100.00
2023-01-17T17:26:55.747Z,100.00
2023-01-17T17:29:22.416Z,100.00
2023-01-17T17:31:49.282Z,100.00
2023-01-17T17:34:16.411Z,100.00
2023-01-17T17:36:43.061Z,100.00
2023-01-17T17:39:14.967Z,100.00
2023-01-17T17:41:42.814Z,100.00
2023-01-17T17:44:09.717Z,100.00
2023-01-17T17:46:37.709Z,100.00
2023-01-17T17:49:06.108Z,100.00
2023-01-17T17:51:39.972Z,100.00
2023-01-17T17:54:09.371Z,100.00
2023-01-17T17:56:37.167Z,100.00
2023-01-17T17:59:05.304Z,100.00
2023-01-17T18:01:35.001Z,100.00
2023-01-17T18:04:03.124Z,100.00
2023-01-17T18:06:31.114Z,100.00
2023-01-17T18:08:58.879Z,100.00
2023-01-17T18:11:27.220Z,100.00
2023-01-17T18:13:55.718Z,100.00
2023-01-17T18:16:24.423Z,100.00
2023-01-17T18:18:52.468Z,100.00
2023-01-17T18:21:24.236Z,100.00
2023-01-17T18:23:56.610Z,100.00
2023-01-17T18:26:25.216Z,100.00
2023-01-17T18:28:53.207Z,100.00
2023-01-17T18:31:20.978Z,100.00
2023-01-17T18:33:48.232Z,100.00
2023-01-17T18:36:15.144Z,100.00
2023-01-17T18:38:44.181Z,100.00
2023-01-17T18:41:15.587Z,100.00
2023-01-17T18:43:43.743Z,100.00
2023-01-17T18:46:11.691Z,100.00
2023-01-17T18:48:39.678Z,100.00
2023-01-17T18:51:07.703Z,100.00
2023-01-17T18:53:36.388Z,100.00
2023-01-17T18:56:06.492Z,100.00
2023-01-17T18:58:36.368Z,100.00
2023-01-17T19:01:11.206Z,100.00
2023-01-17T19:03:39.280Z,100.00
2023-01-17T19:06:06.944Z,100.00
2023-01-17T19:08:34.883Z,100.00
2023-01-17T19:11:05.596Z,100.00
2023-01-17T19:13:35.523Z,100.00
2023-01-17T19:16:05.036Z,100.00
2023-01-17T19:18:32.111Z,100.00
2023-01-17T19:21:13.157Z,100.00
2023-01-17T19:23:40.622Z,100.00
2023-01-17T19:26:11.417Z,100.00
2023-01-17T19:28:42.312Z,100.00
2023-01-17T19:31:13.652Z,100.00
2023-01-17T19:33:44.204Z,100.00
2023-01-17T19:36:14.100Z,100.00
2023-01-17T19:38:45.526Z,100.00
2023-01-17T19:41:18.362Z,100.00
2023-01-17T19:43:45.819Z,100.00
2023-01-17T19:46:12.647Z,100.00
2023-01-17T19:48:41.014Z,100.00
2023-01-17T19:51:13.076Z,100.00
2023-01-17T19:53:41.130Z,100.00
2023-01-17T19:56:10.653Z,100.00
2023-01-17T19:58:38.211Z,100.00
2023-01-17T20:01:06.488Z,100.00
2023-01-17T20:03:35.138Z,100.00
2023-01-17T20:06:02.366Z,100.00
2023-01-17T20:08:30.903Z,100.00
2023-01-17T20:11:02.476Z,100.00
2023-01-17T20:13:34.465Z,100.00
2023-01-17T20:16:03.284Z,100.00
2023-01-17T20:18:30.843Z,100.00
2023-01-17T20:21:02.202Z,100.00
2023-01-17T20:23:29.679Z,100.00
2023-01-17T20:25:59.611Z,100.00
2023-01-17T20:28:27.700Z,100.00
2023-01-17T20:30:55.829Z,100.00
2023-01-17T20:33:23.756Z,100.00
2023-01-17T20:36:04.901Z,100.00
2023-01-17T20:38:45.720Z,100.00
2023-01-17T20:41:24.484Z,100.00
2023-01-17T20:43:54.991Z,100.00
2023-01-17T20:46:22.956Z,100.00
2023-01-17T20:48:50.919Z,100.00
2023-01-17T20:51:18.375Z,100.00
2023-01-17T20:53:46.099Z,100.00
2023-01-17T20:56:17.776Z,100.00
2023-01-17T20:58:44.598Z,100.00
2023-01-17T21:01:13.240Z,100.00
2023-01-17T21:03:40.190Z,100.00
2023-01-17T21:06:08.251Z,100.00
2023-01-17T21:08:36.314Z,100.00
2023-01-17T21:11:03.743Z,100.00
2023-01-17T21:13:31.750Z,100.00
2023-01-17T21:15:58.410Z,100.00
2023-01-17T21:26:07.724Z,100.00
2023-01-17T21:28:35.706Z,100.00
2023-01-17T21:31:06.511Z,100.00
2023-01-17T21:33:33.165Z,100.00
2023-01-17T21:36:07.969Z,100.00
2023-01-17T21:38:34.554Z,100.00
2023-01-17T21:41:01.151Z,100.00
2023-01-17T21:43:27.809Z,100.00
2023-01-17T21:45:55.690Z,100.00
2023-01-17T21:48:22.303Z,100.00
2023-01-17T21:50:52.185Z,100.00
2023-01-17T21:53:18.781Z,100.00
2023-01-17T21:56:03.994Z,100.00
2023-01-17T21:58:45.723Z,100.00
2023-01-17T22:01:19.415Z,100.00
2023-01-17T22:03:48.464Z,100.00
2023-01-17T22:06:15.106Z,100.00
2023-01-17T22:08:41.849Z,100.00
2023-01-17T22:11:11.052Z,100.00
2023-01-17T22:13:38.321Z,100.00
2023-01-17T22:16:06.636Z,100.00
2023-01-17T22:18:36.146Z,100.00
2023-01-17T22:21:07.226Z,100.00
2023-01-17T22:23:34.503Z,100.00
2023-01-17T22:26:01.964Z,100.00
2023-01-17T22:28:29.751Z,100.00
2023-01-17T22:30:56.538Z,100.00
2023-01-17T22:33:23.251Z,100.00
2023-01-17T22:35:57.198Z,100.00
2023-01-17T22:38:23.953Z,100.00
2023-01-17T22:40:50.531Z,100.00
2023-01-17T22:43:17.169Z,100.00
2023-01-17T22:45:45.978Z,100.00
2023-01-17T22:48:12.661Z,100.00
2023-01-17T22:50:39.306Z,100.00
2023-01-17T22:53:05.896Z,100.00
2023-01-17T22:55:32.481Z,100.00
2023-01-17T22:57:59.154Z,100.00
2023-01-17T23:00:25.787Z,100.00
2023-01-17T23:02:53.499Z,100.00
2023-01-17T23:05:20.459Z,100.00
2023-01-17T23:07:49.378Z,100.00
2023-01-17T23:10:36.152Z,100.00
2023-01-17T23:13:02.840Z,100.00
2023-01-17T23:15:48.051Z,100.00
2023-01-17T23:18:33.271Z,100.00
2023-01-17T23:20:59.967Z,100.00
2023-01-17T23:23:26.563Z,100.00
2023-01-17T23:25:53.150Z,100.00
2023-01-17T23:28:21.028Z,100.00
2023-01-17T23:30:48.250Z,100.00
2023-01-17T23:33:16.035Z,100.00
2023-01-17T23:35:44.249Z,100.00
2023-01-17T23:38:28.870Z,100.00
2023-01-17T23:41:21.066Z,100.00
2023-01-17T23:43:51.467Z,100.00
2023-01-17T23:46:18.187Z,100.00
2023-01-17T23:48:44.919Z,100.00
2023-01-17T23:51:11.579Z,100.00
2023-01-17T23:53:39.035Z,100.00
2023-01-17T23:56:10.068Z,100.00
2023-01-17T23:58:36.753Z,100.00
